createdAt,value
2018-05-16T00:00:44.225Z,0.00
2018-05-16T00:01:44.220Z,0.00
2018-05-16T00:02:44.216Z,0.00
2018-05-16T00:03:44.219Z,0.00
2018-05-16T00:04:44.211Z,0.00
2018-05-16T00:05:44.207Z,0.00
2018-05-16T00:06:44.204Z,0.00
2018-05-16T00:07:44.212Z,0.00
2018-05-16T00:08:44.192Z,0.00
2018-05-16T00:09:44.221Z,0.00
2018-05-16T00:10:44.187Z,0.00
2018-05-16T00:11:44.185Z,0.00
2018-05-16T00:12:44.179Z,0.00
2018-05-16T00:13:44.178Z,0.00
2018-05-16T00:14:44.171Z,0.00
2018-05-16T00:15:44.163Z,0.00
2018-05-16T00:16:44.159Z,0.00
2018-05-16T00:17:44.159Z,0.00
2018-05-16T00:18:44.155Z,0.00
2018-05-16T00:19:44.157Z,0.00
2018-05-16T00:20:44.140Z,0.00
2018-05-16T00:21:44.141Z,0.00
2018-05-16T00:22:44.145Z,0.00
2018-05-16T00:23:44.167Z,0.00
2018-05-16T00:24:44.140Z,0.00
2018-05-16T00:25:44.126Z,0.00
2018-05-16T00:26:44.120Z,0.00
2018-05-16T00:27:44.136Z,0.00
2018-05-16T00:28:44.118Z,0.00
2018-05-16T00:29:44.111Z,0.00
2018-05-16T00:30:44.102Z,0.00
2018-05-16T00:31:44.101Z,0.00
2018-05-16T00:32:44.116Z,0.00
2018-05-16T00:33:44.116Z,0.00
2018-05-16T00:34:44.120Z,0.00
2018-05-16T00:35:44.109Z,0.00
2018-05-16T00:36:44.086Z,0.00
2018-05-16T00:37:44.080Z,0.00
2018-05-16T00:38:44.072Z,0.00
2018-05-16T00:39:44.068Z,0.00
2018-05-16T00:40:44.064Z,0.00
2018-05-16T00:41:44.058Z,0.00
2018-05-16T00:42:44.053Z,0.00
2018-05-16T00:43:44.073Z,0.00
2018-05-16T00:44:44.044Z,0.00
2018-05-16T00:45:44.041Z,0.00
2018-05-16T00:46:44.037Z,0.00
2018-05-16T00:47:44.031Z,0.00
2018-05-16T00:48:44.027Z,0.00
2018-05-16T00:49:44.028Z,0.00
2018-05-16T00:50:44.016Z,0.00
2018-05-16T00:51:44.009Z,0.00
2018-05-16T00:52:44.009Z,0.00
2018-05-16T00:53:44.012Z,0.00
2018-05-16T00:54:43.999Z,0.00
2018-05-16T00:55:43.996Z,0.00
2018-05-16T00:56:43.989Z,0.00
2018-05-16T00:57:43.984Z,0.00
2018-05-16T00:58:43.981Z,0.00
2018-05-16T00:59:43.975Z,0.00
2018-05-16T01:00:43.977Z,0.00
2018-05-16T01:01:43.965Z,0.00
2018-05-16T01:02:43.960Z,0.00
2018-05-16T01:03:43.952Z,0.00
2018-05-16T01:04:43.948Z,0.00
2018-05-16T01:05:43.973Z,0.00
2018-05-16T01:06:43.996Z,0.00
2018-05-16T01:07:43.947Z,0.00
2018-05-16T01:08:43.937Z,0.00
2018-05-16T01:09:43.923Z,0.00
2018-05-16T01:10:43.952Z,0.00
2018-05-16T01:11:43.915Z,0.00
2018-05-16T01:12:43.929Z,0.00
2018-05-16T01:13:43.911Z,0.00
2018-05-16T01:14:43.902Z,0.00
2018-05-16T01:15:43.891Z,0.00
2018-05-16T01:16:43.895Z,0.00
2018-05-16T01:17:43.887Z,0.00
2018-05-16T01:18:43.885Z,0.00
2018-05-16T01:19:43.874Z,0.00
2018-05-16T01:20:43.873Z,0.00
2018-05-16T01:21:43.868Z,0.00
2018-05-16T01:22:43.862Z,0.00
2018-05-16T01:23:43.860Z,0.00
2018-05-16T01:24:43.851Z,0.00
2018-05-16T01:25:43.847Z,0.00
2018-05-16T01:26:43.853Z,0.00
2018-05-16T01:27:43.834Z,0.00
2018-05-16T01:28:43.833Z,0.00
2018-05-16T01:29:43.829Z,0.00
2018-05-16T01:30:43.842Z,0.00
2018-05-16T01:31:43.824Z,0.00
2018-05-16T01:32:43.809Z,0.00
2018-05-16T01:33:43.804Z,0.00
2018-05-16T01:34:43.803Z,0.00
2018-05-16T01:35:43.797Z,0.00
2018-05-16T01:36:43.793Z,0.00
2018-05-16T01:37:43.789Z,0.00
2018-05-16T01:38:43.785Z,0.00
2018-05-16T01:39:43.780Z,0.00
2018-05-16T01:40:43.771Z,0.00
2018-05-16T01:41:43.767Z,0.00
2018-05-16T01:42:43.764Z,0.00
2018-05-16T01:43:43.759Z,0.00
2018-05-16T01:44:43.756Z,0.00
2018-05-16T01:45:43.750Z,0.00
2018-05-16T01:46:43.737Z,0.00
2018-05-16T01:47:43.739Z,0.00
2018-05-16T01:48:43.730Z,0.00
2018-05-16T01:49:43.727Z,0.00
2018-05-16T01:50:43.725Z,0.00
2018-05-16T01:51:43.718Z,0.00
2018-05-16T01:52:43.715Z,0.00
2018-05-16T01:53:43.704Z,0.00
2018-05-16T01:54:43.698Z,0.00
2018-05-16T01:55:43.693Z,0.00
2018-05-16T01:56:43.692Z,0.00
2018-05-16T01:57:43.688Z,0.00
2018-05-16T01:58:43.693Z,0.00
2018-05-16T01:59:43.676Z,0.00
2018-05-16T02:00:43.671Z,0.00
2018-05-16T02:01:43.667Z,0.00
2018-05-16T02:02:43.659Z,0.00
2018-05-16T02:03:43.655Z,0.00
2018-05-16T02:04:43.653Z,0.00
2018-05-16T02:05:43.645Z,0.00
2018-05-16T02:06:43.643Z,0.00
2018-05-16T02:07:43.635Z,0.00
2018-05-16T02:08:43.629Z,0.00
2018-05-16T02:09:43.653Z,0.00
2018-05-16T02:10:43.617Z,0.00
2018-05-16T02:11:43.619Z,0.00
2018-05-16T02:12:43.611Z,0.00
2018-05-16T02:13:43.604Z,0.00
2018-05-16T02:14:43.603Z,0.00
2018-05-16T02:15:43.593Z,0.00
2018-05-16T02:16:43.586Z,0.00
2018-05-16T02:17:43.580Z,0.00
2018-05-16T02:18:43.580Z,0.00
2018-05-16T02:19:43.573Z,0.00
2018-05-16T02:20:43.569Z,0.00
2018-05-16T02:21:43.563Z,0.00
2018-05-16T02:22:43.554Z,0.00
2018-05-16T02:23:43.554Z,0.00
2018-05-16T02:24:43.545Z,0.00
2018-05-16T02:25:43.538Z,0.00
2018-05-16T02:26:43.535Z,0.00
2018-05-16T02:27:43.530Z,0.00
2018-05-16T02:28:43.524Z,0.00
2018-05-16T02:29:43.515Z,0.00
2018-05-16T02:30:43.509Z,0.00
2018-05-16T02:31:43.517Z,0.00
2018-05-16T02:32:43.503Z,0.00
2018-05-16T02:33:43.498Z,0.00
2018-05-16T02:34:43.492Z,0.00
2018-05-16T02:35:43.488Z,0.00
2018-05-16T02:36:43.483Z,0.00
2018-05-16T02:37:43.474Z,0.00
2018-05-16T02:38:43.469Z,0.00
2018-05-16T02:39:43.467Z,0.00
2018-05-16T02:40:43.461Z,0.00
2018-05-16T02:41:43.453Z,0.00
2018-05-16T02:42:43.449Z,0.00
2018-05-16T02:43:43.446Z,0.00
2018-05-16T02:44:43.437Z,0.00
2018-05-16T02:45:43.428Z,0.00
2018-05-16T02:46:43.424Z,0.00
2018-05-16T02:47:43.423Z,0.00
2018-05-16T02:48:43.416Z,0.00
2018-05-16T02:49:43.412Z,0.00
2018-05-16T02:50:43.406Z,0.00
2018-05-16T02:51:43.395Z,0.00
2018-05-16T02:52:43.395Z,0.00
2018-05-16T02:53:43.385Z,0.00
2018-05-16T02:54:43.381Z,0.00
2018-05-16T02:55:43.377Z,0.00
2018-05-16T02:56:43.373Z,0.00
2018-05-16T02:57:43.367Z,0.00
2018-05-16T02:58:43.358Z,4.00
2018-05-16T02:59:43.365Z,4.00
2018-05-16T03:00:43.347Z,4.00
2018-05-16T03:01:43.345Z,4.00
2018-05-16T03:02:43.336Z,4.00
2018-05-16T03:03:43.334Z,4.00
2018-05-16T03:04:43.329Z,4.00
2018-05-16T03:05:43.319Z,8.00
2018-05-16T03:06:43.324Z,4.00
2018-05-16T03:07:43.309Z,8.00
2018-05-16T03:08:43.305Z,8.00
2018-05-16T03:09:43.300Z,12.00
2018-05-16T03:10:43.294Z,12.00
2018-05-16T03:11:43.290Z,12.00
2018-05-16T03:12:43.279Z,12.00
2018-05-16T03:13:43.276Z,20.00
2018-05-16T03:14:43.271Z,20.00
2018-05-16T03:15:43.262Z,20.00
2018-05-16T03:16:43.260Z,24.00
2018-05-16T03:17:43.254Z,28.00
2018-05-16T03:18:43.249Z,32.00
2018-05-16T03:19:43.246Z,36.00
2018-05-16T03:20:43.233Z,40.00
2018-05-16T03:21:43.229Z,44.00
2018-05-16T03:22:43.222Z,48.00
2018-05-16T03:23:43.225Z,56.00
2018-05-16T03:24:43.216Z,60.00
2018-05-16T03:25:43.217Z,68.00
2018-05-16T03:26:43.202Z,76.00
2018-05-16T03:27:43.198Z,84.00
2018-05-16T03:28:43.192Z,92.00
2018-05-16T03:29:43.184Z,100.00
2018-05-16T03:30:43.184Z,112.00
2018-05-16T03:31:43.178Z,124.00
2018-05-16T03:32:43.173Z,132.00
2018-05-16T03:33:43.165Z,144.00
2018-05-16T03:34:43.161Z,160.00
2018-05-16T03:35:43.150Z,176.00
2018-05-16T03:36:43.142Z,188.00
2018-05-16T03:37:43.143Z,204.00
2018-05-16T03:38:43.138Z,224.00
2018-05-16T03:39:43.132Z,240.00
2018-05-16T03:40:43.127Z,260.00
2018-05-16T03:41:43.118Z,284.00
2018-05-16T03:42:43.113Z,304.00
2018-05-16T03:43:43.106Z,332.00
2018-05-16T03:44:43.103Z,356.00
2018-05-16T03:45:43.095Z,384.00
2018-05-16T03:46:43.091Z,408.00
2018-05-16T03:47:43.084Z,440.00
2018-05-16T03:48:43.077Z,472.00
2018-05-16T03:49:43.074Z,504.00
2018-05-16T03:50:43.067Z,536.00
2018-05-16T03:51:43.060Z,572.00
2018-05-16T03:52:43.060Z,608.00
2018-05-16T03:53:43.053Z,644.00
2018-05-16T03:54:43.048Z,684.00
2018-05-16T03:55:43.039Z,720.00
2018-05-16T03:56:43.031Z,752.00
2018-05-16T03:57:43.028Z,788.00
2018-05-16T03:58:43.019Z,824.00
2018-05-16T03:59:43.019Z,860.00
2018-05-16T04:00:43.011Z,892.00
2018-05-16T04:01:43.005Z,928.00
2018-05-16T04:02:43.001Z,964.00
2018-05-16T04:03:42.994Z,996.00
2018-05-16T04:04:42.986Z,1032.00
2018-05-16T04:05:42.983Z,1068.00
2018-05-16T04:06:42.977Z,1104.00
2018-05-16T04:07:42.970Z,1140.00
2018-05-16T04:08:42.973Z,1172.00
2018-05-16T04:09:42.960Z,1208.00
2018-05-16T04:10:42.955Z,1244.00
2018-05-16T04:11:42.946Z,1280.00
2018-05-16T04:12:42.942Z,1312.00
2018-05-16T04:13:42.934Z,1344.00
2018-05-16T04:14:42.935Z,1380.00
2018-05-16T04:15:42.928Z,1416.00
2018-05-16T04:16:42.922Z,1448.00
2018-05-16T04:17:42.911Z,1480.00
2018-05-16T04:18:42.919Z,1508.00
2018-05-16T04:19:42.916Z,1540.00
2018-05-16T04:20:42.897Z,1572.00
2018-05-16T04:21:42.894Z,1604.00
2018-05-16T04:22:42.887Z,1632.00
2018-05-16T04:23:42.883Z,1664.00
2018-05-16T04:24:42.879Z,1692.00
2018-05-16T04:25:42.866Z,1728.00
2018-05-16T04:26:42.861Z,1764.00
2018-05-16T04:27:42.861Z,1796.00
2018-05-16T04:28:42.922Z,1828.00
2018-05-16T04:29:42.848Z,1860.00
2018-05-16T04:30:42.845Z,1884.00
2018-05-16T04:31:42.836Z,1912.00
2018-05-16T04:32:42.904Z,1944.00
2018-05-16T04:33:42.828Z,1976.00
2018-05-16T04:34:42.820Z,2016.00
2018-05-16T04:35:42.815Z,2052.00
2018-05-16T04:36:42.812Z,2092.00
2018-05-16T04:37:42.803Z,2128.00
2018-05-16T04:38:42.796Z,2172.00
2018-05-16T04:39:42.788Z,2200.00
2018-05-16T04:40:42.783Z,2220.00
2018-05-16T04:41:42.844Z,2248.00
2018-05-16T04:42:42.826Z,2276.00
2018-05-16T04:43:42.770Z,2284.00
2018-05-16T04:44:42.765Z,2296.00
2018-05-16T04:45:42.757Z,2324.00
2018-05-16T04:46:42.748Z,2348.00
2018-05-16T04:47:42.751Z,2380.00
2018-05-16T04:48:42.747Z,2504.00
2018-05-16T04:49:42.741Z,2824.00
2018-05-16T04:50:42.730Z,3144.00
2018-05-16T04:51:42.726Z,3432.00
2018-05-16T04:52:42.721Z,3748.00
2018-05-16T04:53:42.712Z,4020.00
2018-05-16T04:54:42.710Z,4276.00
2018-05-16T04:55:42.701Z,4504.00
2018-05-16T04:56:42.700Z,4812.00
2018-05-16T04:57:42.697Z,5020.00
2018-05-16T04:58:42.686Z,5100.00
2018-05-16T04:59:42.684Z,5168.00
2018-05-16T05:00:42.675Z,5204.00
2018-05-16T05:01:42.670Z,5424.00
2018-05-16T05:02:42.666Z,5648.00
2018-05-16T05:03:42.661Z,5832.00
2018-05-16T05:04:42.658Z,5968.00
2018-05-16T05:05:42.650Z,6056.00
2018-05-16T05:06:42.649Z,6176.00
2018-05-16T05:07:42.642Z,6308.00
2018-05-16T05:08:42.637Z,6412.00
2018-05-16T05:09:42.631Z,6472.00
2018-05-16T05:10:42.628Z,6520.00
2018-05-16T05:11:42.629Z,6652.00
2018-05-16T05:12:42.624Z,6792.00
2018-05-16T05:13:42.617Z,6860.00
2018-05-16T05:14:42.613Z,6956.00
2018-05-16T05:15:42.611Z,7056.00
2018-05-16T05:16:42.604Z,7240.00
2018-05-16T05:17:42.602Z,7376.00
2018-05-16T05:18:42.687Z,7484.00
2018-05-16T05:19:42.597Z,7476.00
2018-05-16T05:20:42.593Z,7460.00
2018-05-16T05:21:42.591Z,7512.00
2018-05-16T05:22:42.583Z,7692.00
2018-05-16T05:23:42.578Z,7872.00
2018-05-16T05:24:42.579Z,8020.00
2018-05-16T05:25:42.577Z,8096.00
2018-05-16T05:26:42.574Z,8148.00
2018-05-16T05:27:42.571Z,8240.00
2018-05-16T05:28:42.569Z,8472.00
2018-05-16T05:29:42.563Z,8820.00
2018-05-16T05:30:42.559Z,8924.00
2018-05-16T05:31:42.557Z,9096.00
2018-05-16T05:32:42.559Z,9316.00
2018-05-16T05:33:42.555Z,9504.00
2018-05-16T05:34:42.549Z,9724.00
2018-05-16T05:35:42.551Z,9896.00
2018-05-16T05:36:42.546Z,10028.00
2018-05-16T05:37:42.546Z,10320.00
2018-05-16T05:38:42.545Z,10544.00
2018-05-16T05:39:42.544Z,10712.00
2018-05-16T05:40:42.541Z,10832.00
2018-05-16T05:41:42.539Z,11120.00
2018-05-16T05:42:42.534Z,11384.00
2018-05-16T05:43:42.531Z,11492.00
2018-05-16T05:44:42.534Z,11576.00
2018-05-16T05:45:42.535Z,11592.00
2018-05-16T05:46:42.531Z,11744.00
2018-05-16T05:47:42.537Z,12280.00
2018-05-16T05:48:42.526Z,12400.00
2018-05-16T05:49:42.520Z,12532.00
2018-05-16T05:50:42.522Z,12800.00
2018-05-16T05:51:42.521Z,13104.00
2018-05-16T05:52:42.522Z,13528.00
2018-05-16T05:53:42.519Z,13684.00
2018-05-16T05:54:42.520Z,13892.00
2018-05-16T05:55:42.521Z,14224.00
2018-05-16T05:56:42.516Z,14688.00
2018-05-16T05:57:42.514Z,12248.00
2018-05-16T05:58:42.524Z,9184.00
2018-05-16T05:59:42.517Z,10760.00
2018-05-16T06:00:42.530Z,15680.00
2018-05-16T06:01:42.514Z,11296.00
2018-05-16T06:02:42.516Z,14816.00
2018-05-16T06:03:42.514Z,11392.00
2018-05-16T06:04:42.517Z,16160.00
2018-05-16T06:05:42.515Z,12124.00
2018-05-16T06:06:42.519Z,16928.00
2018-05-16T06:07:42.515Z,15680.00
2018-05-16T06:08:42.519Z,18112.00
2018-05-16T06:09:42.517Z,17184.00
2018-05-16T06:10:42.515Z,16864.00
2018-05-16T06:11:42.517Z,18720.00
2018-05-16T06:12:42.554Z,18176.00
2018-05-16T06:13:42.517Z,16928.00
2018-05-16T06:14:42.522Z,8000.00
2018-05-16T06:15:42.523Z,7888.00
2018-05-16T06:16:42.527Z,8604.00
2018-05-16T06:17:42.518Z,10316.00
2018-05-16T06:18:42.524Z,15840.00
2018-05-16T06:19:42.594Z,9688.00
2018-05-16T06:20:42.522Z,23168.00
2018-05-16T06:21:42.527Z,23680.00
2018-05-16T06:22:42.544Z,24512.00
2018-05-16T06:23:42.528Z,23552.00
2018-05-16T06:24:42.551Z,23712.00
2018-05-16T06:25:42.523Z,23616.00
2018-05-16T06:26:42.527Z,23488.00
2018-05-16T06:27:42.524Z,10952.00
2018-05-16T06:28:42.535Z,13076.00
2018-05-16T06:29:42.533Z,7256.00
2018-05-16T06:30:42.535Z,12748.00
2018-05-16T06:31:42.535Z,20704.00
2018-05-16T06:32:42.591Z,22208.00
2018-05-16T06:33:42.532Z,23040.00
2018-05-16T06:34:42.536Z,22016.00
2018-05-16T06:35:42.539Z,20352.00
2018-05-16T06:36:42.546Z,19072.00
2018-05-16T06:37:42.540Z,18112.00
2018-05-16T06:38:42.539Z,17600.00
2018-05-16T06:39:42.537Z,16640.00
2018-05-16T06:40:42.540Z,15360.00
2018-05-16T06:41:42.545Z,18784.00
2018-05-16T06:42:42.546Z,19936.00
2018-05-16T06:43:42.549Z,19936.00
2018-05-16T06:44:42.550Z,19232.00
2018-05-16T06:45:42.569Z,17440.00
2018-05-16T06:46:42.551Z,17184.00
2018-05-16T06:47:42.555Z,20736.00
2018-05-16T06:48:42.553Z,20640.00
2018-05-16T06:49:42.559Z,20416.00
2018-05-16T06:50:42.558Z,21152.00
2018-05-16T06:51:42.562Z,20832.00
2018-05-16T06:52:42.566Z,20416.00
2018-05-16T06:53:42.566Z,16576.00
2018-05-16T06:54:42.565Z,14672.00
2018-05-16T06:55:42.566Z,14704.00
2018-05-16T06:56:42.569Z,16192.00
2018-05-16T06:57:42.565Z,20224.00
2018-05-16T06:58:42.573Z,9556.00
2018-05-16T06:59:42.577Z,8680.00
2018-05-16T07:00:42.573Z,8052.00
2018-05-16T07:01:42.573Z,7736.00
2018-05-16T07:02:42.579Z,7476.00
2018-05-16T07:03:42.577Z,6892.00
2018-05-16T07:04:42.581Z,6060.00
2018-05-16T07:05:42.585Z,5276.00
2018-05-16T07:06:42.589Z,4672.00
2018-05-16T07:07:42.580Z,4312.00
2018-05-16T07:08:42.591Z,3936.00
2018-05-16T07:09:42.586Z,3632.00
2018-05-16T07:10:42.588Z,3736.00
2018-05-16T07:11:42.586Z,4228.00
2018-05-16T07:12:42.593Z,4704.00
2018-05-16T07:13:42.588Z,5244.00
2018-05-16T07:14:42.586Z,5856.00
2018-05-16T07:15:42.587Z,6560.00
2018-05-16T07:16:42.585Z,7200.00
2018-05-16T07:17:42.586Z,7520.00
2018-05-16T07:18:42.586Z,7516.00
2018-05-16T07:19:42.590Z,7636.00
2018-05-16T07:20:42.588Z,8020.00
2018-05-16T07:21:42.583Z,8028.00
2018-05-16T07:22:42.619Z,7272.00
2018-05-16T07:23:42.586Z,6984.00
2018-05-16T07:24:42.579Z,6900.00
2018-05-16T07:25:42.584Z,6968.00
2018-05-16T07:26:42.580Z,6776.00
2018-05-16T07:27:42.580Z,6588.00
2018-05-16T07:28:42.574Z,6352.00
2018-05-16T07:29:42.577Z,7036.00
2018-05-16T07:30:42.572Z,7240.00
2018-05-16T07:31:42.592Z,6784.00
2018-05-16T07:32:42.575Z,6108.00
2018-05-16T07:33:42.632Z,5612.00
2018-05-16T07:34:42.569Z,5884.00
2018-05-16T07:35:42.564Z,6712.00
2018-05-16T07:36:42.594Z,7424.00
2018-05-16T07:37:42.559Z,7908.00
2018-05-16T07:38:42.571Z,8024.00
2018-05-16T07:39:42.561Z,7468.00
2018-05-16T07:40:42.557Z,7088.00
2018-05-16T07:41:42.556Z,7524.00
2018-05-16T07:42:42.553Z,8580.00
2018-05-16T07:43:42.550Z,9500.00
2018-05-16T07:44:42.550Z,9632.00
2018-05-16T07:45:42.546Z,8852.00
2018-05-16T07:46:42.551Z,8188.00
2018-05-16T07:47:42.556Z,8228.00
2018-05-16T07:48:42.548Z,8584.00
2018-05-16T07:49:42.542Z,8716.00
2018-05-16T07:50:42.541Z,8548.00
2018-05-16T07:51:42.537Z,8060.00
2018-05-16T07:52:42.537Z,7796.00
2018-05-16T07:53:42.553Z,8072.00
2018-05-16T07:54:42.531Z,8388.00
2018-05-16T07:55:42.525Z,8892.00
2018-05-16T07:56:42.525Z,9000.00
2018-05-16T07:57:42.519Z,9008.00
2018-05-16T07:58:42.518Z,9184.00
2018-05-16T07:59:42.513Z,10692.00
2018-05-16T08:00:42.519Z,11548.00
2018-05-16T08:01:42.510Z,11112.00
2018-05-16T08:02:43.408Z,10456.00
2018-05-16T08:03:42.505Z,10716.00
2018-05-16T08:04:42.505Z,11684.00
2018-05-16T08:05:42.513Z,12884.00
2018-05-16T08:06:42.497Z,14900.00
2018-05-16T08:07:42.497Z,15840.00
2018-05-16T08:08:42.525Z,16296.00
2018-05-16T08:09:42.488Z,16928.00
2018-05-16T08:10:42.492Z,16612.00
2018-05-16T08:11:42.487Z,14884.00
2018-05-16T08:12:42.489Z,13120.00
2018-05-16T08:13:42.477Z,11776.00
2018-05-16T08:14:42.480Z,10956.00
2018-05-16T08:15:42.478Z,10676.00
2018-05-16T08:16:42.476Z,10608.00
2018-05-16T08:17:42.469Z,10392.00
2018-05-16T08:18:42.467Z,11076.00
2018-05-16T08:19:42.467Z,12152.00
2018-05-16T08:20:42.476Z,12084.00
2018-05-16T08:21:42.502Z,11420.00
2018-05-16T08:22:42.468Z,11692.00
2018-05-16T08:23:42.462Z,11940.00
2018-05-16T08:24:42.460Z,13136.00
2018-05-16T08:25:42.453Z,14196.00
2018-05-16T08:26:42.451Z,15752.00
2018-05-16T08:27:42.450Z,24832.00
2018-05-16T08:28:42.447Z,24064.00
2018-05-16T08:29:42.448Z,23904.00
2018-05-16T08:30:42.447Z,20160.00
2018-05-16T08:31:42.442Z,20608.00
2018-05-16T08:32:42.446Z,18112.00
2018-05-16T08:33:42.444Z,18368.00
2018-05-16T08:34:42.438Z,19200.00
2018-05-16T08:35:42.436Z,22720.00
2018-05-16T08:36:42.471Z,21440.00
2018-05-16T08:37:42.436Z,24096.00
2018-05-16T08:38:42.436Z,20960.00
2018-05-16T08:39:42.434Z,20736.00
2018-05-16T08:40:42.432Z,20704.00
2018-05-16T08:41:42.433Z,25600.00
2018-05-16T08:42:42.425Z,25600.00
2018-05-16T08:43:42.431Z,42464.00
2018-05-16T08:44:42.426Z,26272.00
2018-05-16T08:45:42.427Z,25120.00
2018-05-16T08:46:42.426Z,24096.00
2018-05-16T08:47:42.424Z,20832.00
2018-05-16T08:48:42.425Z,19040.00
2018-05-16T08:49:42.422Z,19296.00
2018-05-16T08:50:42.425Z,20192.00
2018-05-16T08:51:42.433Z,23360.00
2018-05-16T08:52:42.424Z,31744.00
2018-05-16T08:53:42.423Z,34464.00
2018-05-16T08:54:42.420Z,26464.00
2018-05-16T08:55:42.421Z,26560.00
2018-05-16T08:56:42.419Z,26976.00
2018-05-16T08:57:42.420Z,28032.00
2018-05-16T08:58:42.417Z,24992.00
2018-05-16T08:59:42.422Z,25152.00
2018-05-16T09:00:42.425Z,29408.00
2018-05-16T09:01:42.419Z,31872.00
2018-05-16T09:02:42.417Z,51776.00
2018-05-16T09:03:42.417Z,56320.00
2018-05-16T09:04:42.421Z,56992.00
2018-05-16T09:05:42.429Z,38016.00
2018-05-16T09:06:42.425Z,55936.00
2018-05-16T09:07:42.427Z,51040.00
2018-05-16T09:08:42.423Z,24480.00
2018-05-16T09:09:42.422Z,20896.00
2018-05-16T09:10:42.424Z,20768.00
2018-05-16T09:11:42.431Z,23584.00
2018-05-16T09:12:42.431Z,37504.00
2018-05-16T09:13:42.433Z,40896.00
2018-05-16T09:14:42.433Z,41984.00
2018-05-16T09:15:42.440Z,34208.00
2018-05-16T09:16:42.436Z,28608.00
2018-05-16T09:17:42.439Z,28928.00
2018-05-16T09:18:42.441Z,31552.00
2018-05-16T09:19:42.443Z,40128.00
2018-05-16T09:20:42.452Z,31584.00
2018-05-16T09:21:42.447Z,32864.00
2018-05-16T09:22:42.447Z,39712.00
2018-05-16T09:23:42.453Z,33312.00
2018-05-16T09:24:42.454Z,31072.00
2018-05-16T09:25:42.456Z,40448.00
2018-05-16T09:26:42.465Z,32608.00
2018-05-16T09:27:42.465Z,30688.00
2018-05-16T09:28:42.467Z,26816.00
2018-05-16T09:29:42.470Z,25440.00
2018-05-16T09:30:42.470Z,24032.00
2018-05-16T09:31:42.471Z,22144.00
2018-05-16T09:32:42.472Z,20320.00
2018-05-16T09:33:42.497Z,18848.00
2018-05-16T09:34:42.487Z,17696.00
2018-05-16T09:35:42.483Z,16800.00
2018-05-16T09:36:42.494Z,15768.00
2018-05-16T09:37:42.485Z,15256.00
2018-05-16T09:38:42.487Z,14544.00
2018-05-16T09:39:42.493Z,14400.00
2018-05-16T09:40:42.497Z,14676.00
2018-05-16T09:41:42.499Z,15428.00
2018-05-16T09:42:42.498Z,16864.00
2018-05-16T09:43:42.501Z,17728.00
2018-05-16T09:44:42.500Z,17664.00
2018-05-16T09:45:42.597Z,16896.00
2018-05-16T09:46:42.509Z,16768.00
2018-05-16T09:47:42.514Z,17504.00
2018-05-16T09:48:42.514Z,18656.00
2018-05-16T09:49:42.514Z,19840.00
2018-05-16T09:50:42.515Z,20480.00
2018-05-16T09:51:42.511Z,21792.00
2018-05-16T09:52:42.518Z,23616.00
2018-05-16T09:53:42.516Z,24192.00
2018-05-16T09:54:42.521Z,23584.00
2018-05-16T09:55:42.522Z,22848.00
2018-05-16T09:56:42.515Z,22912.00
2018-05-16T09:57:42.520Z,24288.00
2018-05-16T09:58:42.521Z,24224.00
2018-05-16T09:59:42.524Z,26912.00
2018-05-16T10:00:42.525Z,26240.00
2018-05-16T10:01:42.529Z,29920.00
2018-05-16T10:02:42.618Z,28128.00
2018-05-16T10:03:42.525Z,28512.00
2018-05-16T10:04:42.531Z,30880.00
2018-05-16T10:05:42.529Z,30784.00
2018-05-16T10:06:42.530Z,24160.00
2018-05-16T10:07:42.542Z,23040.00
2018-05-16T10:08:42.533Z,20384.00
2018-05-16T10:09:42.605Z,17344.00
2018-05-16T10:10:42.536Z,17376.00
2018-05-16T10:11:42.537Z,18752.00
2018-05-16T10:12:42.538Z,19808.00
2018-05-16T10:13:42.534Z,20352.00
2018-05-16T10:14:42.534Z,22880.00
2018-05-16T10:15:42.537Z,27968.00
2018-05-16T10:16:42.542Z,27872.00
2018-05-16T10:17:42.541Z,26528.00
2018-05-16T10:18:42.543Z,29632.00
2018-05-16T10:19:42.539Z,26080.00
2018-05-16T10:20:42.541Z,25504.00
2018-05-16T10:21:42.541Z,22656.00
2018-05-16T10:22:42.540Z,22016.00
2018-05-16T10:23:42.556Z,23392.00
2018-05-16T10:24:42.543Z,21760.00
2018-05-16T10:25:42.546Z,20672.00
2018-05-16T10:26:42.542Z,18496.00
2018-05-16T10:27:42.543Z,16928.00
2018-05-16T10:28:42.549Z,15824.00
2018-05-16T10:29:42.549Z,14916.00
2018-05-16T10:30:42.567Z,14248.00
2018-05-16T10:31:42.551Z,14092.00
2018-05-16T10:32:42.552Z,14548.00
2018-05-16T10:33:42.551Z,15520.00
2018-05-16T10:34:42.547Z,16640.00
2018-05-16T10:35:42.549Z,17568.00
2018-05-16T10:36:42.554Z,19136.00
2018-05-16T10:37:42.561Z,22720.00
2018-05-16T10:38:42.554Z,22944.00
2018-05-16T10:39:42.555Z,23712.00
2018-05-16T10:40:42.557Z,22144.00
2018-05-16T10:41:42.553Z,18976.00
2018-05-16T10:42:42.553Z,17952.00
2018-05-16T10:43:42.555Z,17440.00
2018-05-16T10:44:42.558Z,17216.00
2018-05-16T10:45:42.558Z,18656.00
2018-05-16T10:46:42.556Z,20992.00
2018-05-16T10:47:42.560Z,21440.00
2018-05-16T10:48:42.555Z,20704.00
2018-05-16T10:49:42.558Z,19008.00
2018-05-16T10:50:42.643Z,17536.00
2018-05-16T10:51:42.559Z,17056.00
2018-05-16T10:52:42.558Z,18688.00
2018-05-16T10:53:42.563Z,25056.00
2018-05-16T10:54:42.559Z,35168.00
2018-05-16T10:55:42.565Z,41568.00
2018-05-16T10:56:42.556Z,32128.00
2018-05-16T10:57:42.559Z,31328.00
2018-05-16T10:58:42.565Z,32544.00
2018-05-16T10:59:42.562Z,28608.00
2018-05-16T11:00:42.566Z,27232.00
2018-05-16T11:01:42.561Z,26144.00
2018-05-16T11:02:42.561Z,26720.00
2018-05-16T11:03:42.558Z,30368.00
2018-05-16T11:04:42.561Z,29728.00
2018-05-16T11:05:42.564Z,29824.00
2018-05-16T11:06:42.565Z,29856.00
2018-05-16T11:07:42.591Z,29184.00
2018-05-16T11:08:42.566Z,25952.00
2018-05-16T11:09:42.568Z,21472.00
2018-05-16T11:10:42.567Z,19552.00
2018-05-16T11:11:42.566Z,17728.00
2018-05-16T11:12:42.570Z,16176.00
2018-05-16T11:13:42.571Z,15980.00
2018-05-16T11:14:42.576Z,16672.00
2018-05-16T11:15:42.598Z,16080.00
2018-05-16T11:16:42.598Z,15788.00
2018-05-16T11:17:42.572Z,15704.00
2018-05-16T11:18:42.575Z,16608.00
2018-05-16T11:19:42.573Z,16196.00
2018-05-16T11:20:42.579Z,16312.00
2018-05-16T11:21:42.585Z,16736.00
2018-05-16T11:22:42.584Z,17664.00
2018-05-16T11:23:42.579Z,18656.00
2018-05-16T11:24:42.583Z,19904.00
2018-05-16T11:25:42.582Z,20704.00
2018-05-16T11:26:42.584Z,22016.00
2018-05-16T11:27:42.586Z,22752.00
2018-05-16T11:28:42.595Z,22816.00
2018-05-16T11:29:42.590Z,23200.00
2018-05-16T11:30:42.613Z,21952.00
2018-05-16T11:31:42.606Z,20480.00
2018-05-16T11:32:42.587Z,21504.00
2018-05-16T11:33:42.588Z,21856.00
2018-05-16T11:34:42.609Z,21920.00
2018-05-16T11:35:42.593Z,21984.00
2018-05-16T11:36:42.697Z,22528.00
2018-05-16T11:37:42.595Z,23456.00
2018-05-16T11:38:42.595Z,24000.00
2018-05-16T11:39:42.593Z,25888.00
2018-05-16T11:40:42.598Z,24288.00
2018-05-16T11:41:42.601Z,25632.00
2018-05-16T11:42:42.617Z,24096.00
2018-05-16T11:43:42.605Z,21568.00
2018-05-16T11:44:42.610Z,25088.00
2018-05-16T11:45:42.602Z,27392.00
2018-05-16T11:46:42.627Z,28992.00
2018-05-16T11:47:42.602Z,37888.00
2018-05-16T11:48:42.662Z,42784.00
2018-05-16T11:49:42.610Z,37376.00
2018-05-16T11:50:42.608Z,34752.00
2018-05-16T11:51:42.609Z,26976.00
2018-05-16T11:52:42.610Z,24960.00
2018-05-16T11:53:42.610Z,24704.00
2018-05-16T11:54:42.617Z,23040.00
2018-05-16T11:55:42.617Z,22720.00
2018-05-16T11:56:42.614Z,23552.00
2018-05-16T11:57:42.621Z,26496.00
2018-05-16T11:58:42.616Z,29920.00
2018-05-16T11:59:42.618Z,31872.00
2018-05-16T12:00:42.624Z,40960.00
2018-05-16T12:01:42.619Z,37312.00
2018-05-16T12:02:42.695Z,30880.00
2018-05-16T12:03:42.629Z,26016.00
2018-05-16T12:04:42.634Z,28960.00
2018-05-16T12:05:42.632Z,34816.00
2018-05-16T12:06:42.630Z,36064.00
2018-05-16T12:07:42.635Z,35840.00
2018-05-16T12:08:42.633Z,33856.00
2018-05-16T12:09:42.638Z,37856.00
2018-05-16T12:10:42.641Z,35680.00
2018-05-16T12:11:42.652Z,35520.00
2018-05-16T12:12:42.645Z,39296.00
2018-05-16T12:13:42.642Z,40512.00
2018-05-16T12:14:42.755Z,42144.00
2018-05-16T12:15:42.652Z,41696.00